Time;durP1;ratioP1;P1;durP2;ratioP2;P2;SDS_P1;SDS_P2;PMS_P1;PMS_P2;Temp;Humidity;BMP_temperature;BMP_pressure;BME280_temperature;BME280_humidity;BME280_pressure;Samples;Min_cycle;Max_cycle;Signal;HPM_P1;HPM_P2
2023/11/26 05:30:07;;;;;;;0.10;0.10;;;2.70;81.30;;;;;;6136086;23;20107;31
2023/11/26 05:32:34;;;;;;;0.17;0.17;;;2.70;81.60;;;;;;4986119;28;20090;-78
2023/11/26 05:35:08;;;;;;;0.20;0.20;;;2.70;81.50;;;;;;4999810;28;20512;-78
2023/11/26 05:37:37;;;;;;;0.20;0.20;;;2.70;81.70;;;;;;4998835;28;20092;-79
2023/11/26 05:40:05;;;;;;;0.10;0.10;;;2.70;81.70;;;;;;4999955;28;20035;-78
2023/11/26 05:42:30;;;;;;;0.10;0.10;;;2.70;81.90;;;;;;4998760;28;20018;-78
2023/11/26 05:44:56;;;;;;;0.10;0.10;;;2.70;81.90;;;;;;5016959;28;20033;-79
2023/11/26 05:47:21;;;;;;;0.20;0.20;;;2.70;81.90;;;;;;5003431;28;20034;-79
2023/11/26 05:49:47;;;;;;;0.10;0.10;;;2.70;81.70;;;;;;4982213;28;20034;-78
2023/11/26 05:52:12;;;;;;;0.20;0.20;;;2.60;81.60;;;;;;4999635;28;20439;-78
2023/11/26 05:54:38;;;;;;;0.10;0.10;;;2.70;81.90;;;;;;4998523;28;20055;-78
2023/11/26 05:57:04;;;;;;;0.20;0.20;;;2.70;82.00;;;;;;4982523;28;20776;-78
2023/11/26 05:59:30;;;;;;;0.15;0.15;;;2.70;81.90;;;;;;4981735;28;20030;-78
2023/11/26 06:01:55;;;;;;;0.20;0.20;;;2.70;82.00;;;;;;4997958;28;20022;-78
2023/11/26 06:04:22;;;;;;;0.20;0.20;;;2.70;81.80;;;;;;4999249;28;20038;-78
2023/11/26 06:06:47;;;;;;;0.20;0.20;;;2.60;82.00;;;;;;4998504;28;20102;-78
2023/11/26 06:09:13;;;;;;;0.15;0.15;;;2.70;82.10;;;;;;4999383;28;20050;-78
2023/11/26 06:11:39;;;;;;;0.10;0.10;;;2.70;82.10;;;;;;4983322;28;20019;-78
2023/11/26 06:14:05;;;;;;;0.17;0.17;;;2.70;82.10;;;;;;4996376;28;20107;-78
2023/11/26 06:16:30;;;;;;;0.20;0.20;;;2.70;82.10;;;;;;4998291;28;20490;-78
2023/11/26 06:18:56;;;;;;;0.10;0.10;;;2.70;81.90;;;;;;4998147;28;20038;-78
2023/11/26 06:21:22;;;;;;;0.20;0.20;;;2.70;81.70;;;;;;4999363;28;20041;-78
2023/11/26 06:23:47;;;;;;;0.20;0.20;;;2.70;81.70;;;;;;4999290;28;20473;-78
2023/11/26 06:26:17;;;;;;;0.20;0.20;;;2.70;82.00;;;;;;4999232;28;20038;-78
2023/11/26 06:28:43;;;;;;;0.20;0.20;;;2.70;81.90;;;;;;4998703;28;20508;-78
2023/11/26 06:31:08;;;;;;;0.15;0.15;;;2.70;81.60;;;;;;4999210;28;20125;-78
2023/11/26 06:33:34;;;;;;;0.10;0.10;;;2.70;82.00;;;;;;4998531;28;20096;-78
2023/11/26 06:36:00;;;;;;;0.10;0.10;;;2.70;82.00;;;;;;4997572;28;20034;-78
2023/11/26 06:38:26;;;;;;;0.13;0.13;;;2.60;81.90;;;;;;4999110;28;20019;-78
2023/11/26 06:40:51;;;;;;;0.10;0.10;;;2.60;81.80;;;;;;4999079;28;20030;-78
2023/11/26 06:43:17;;;;;;;0.13;0.13;;;2.60;81.70;;;;;;4997586;28;20030;-78
2023/11/26 06:45:42;;;;;;;0.10;0.10;;;2.60;82.00;;;;;;4999090;28;20034;-79
2023/11/26 06:48:08;;;;;;;0.20;0.20;;;2.60;82.00;;;;;;4998689;28;20026;-78
2023/11/26 06:50:35;;;;;;;0.17;0.17;;;2.60;82.00;;;;;;4998788;28;20061;-76
2023/11/26 06:53:00;;;;;;;0.20;0.20;;;2.60;81.90;;;;;;4980465;28;20101;-79
2023/11/26 06:55:26;;;;;;;0.20;0.20;;;2.60;81.90;;;;;;4998831;28;20513;-78
2023/11/26 06:57:51;;;;;;;0.20;0.20;;;2.50;81.60;;;;;;4995694;28;20022;-78
2023/11/26 07:00:18;;;;;;;0.10;0.10;;;2.40;81.90;;;;;;4998226;28;20402;-77
2023/11/26 07:02:44;;;;;;;0.17;0.17;;;2.40;82.00;;;;;;4997301;28;20033;-77
2023/11/26 07:05:09;;;;;;;0.13;0.13;;;2.30;82.00;;;;;;4983900;28;20034;-78
2023/11/26 07:07:35;;;;;;;0.20;0.20;;;2.40;82.30;;;;;;4997299;28;20034;-78
2023/11/26 07:10:01;;;;;;;0.20;0.20;;;2.40;82.50;;;;;;4980801;28;20379;-83
2023/11/26 07:12:29;;;;;;;0.20;0.20;;;2.60;82.30;;;;;;4980874;28;20355;-87
2023/11/26 07:14:55;;;;;;;0.20;0.20;;;2.60;81.70;;;;;;4996863;28;20042;-82
2023/11/26 07:17:24;;;;;;;0.17;0.17;;;2.50;81.70;;;;;;4980471;28;20023;-82
2023/11/26 07:19:51;;;;;;;0.20;0.20;;;2.40;82.00;;;;;;4980073;28;20030;-81
2023/11/26 07:22:17;;;;;;;0.10;0.10;;;2.40;81.90;;;;;;4995355;28;20381;-78
2023/11/26 07:24:42;;;;;;;0.10;0.10;;;2.50;82.10;;;;;;4997603;28;20023;-78
2023/11/26 07:27:08;;;;;;;0.20;0.20;;;2.60;81.90;;;;;;4997314;28;20057;-81
2023/11/26 07:29:34;;;;;;;0.10;0.10;;;2.70;81.90;;;;;;4993006;28;20560;-86
2023/11/26 07:32:00;;;;;;;0.10;0.10;;;2.70;81.80;;;;;;4996033;28;20606;-81
2023/11/26 07:34:26;;;;;;;0.20;0.20;;;2.70;81.90;;;;;;4996277;28;20478;-78
2023/11/26 07:36:51;;;;;;;0.15;0.15;;;2.70;81.20;;;;;;4997944;28;20104;-81
2023/11/26 07:39:17;;;;;;;0.10;0.10;;;2.70;81.40;;;;;;4997109;28;20086;-79
2023/11/26 07:41:46;;;;;;;0.20;0.20;;;2.70;81.70;;;;;;4996477;28;20497;-79
2023/11/26 07:44:13;;;;;;;0.10;0.10;;;2.70;81.30;;;;;;4979160;28;20023;-79
2023/11/26 07:46:40;;;;;;;0.10;0.10;;;2.70;81.50;;;;;;4997449;28;20109;-79
2023/11/26 07:49:06;;;;;;;0.20;0.20;;;2.60;81.50;;;;;;4995668;28;20019;-79
2023/11/26 07:51:32;;;;;;;0.20;0.20;;;2.60;81.80;;;;;;4997640;28;20616;-79
2023/11/26 07:53:57;;;;;;;0.20;0.20;;;2.70;81.90;;;;;;4979330;28;20030;-79
2023/11/26 07:56:23;;;;;;;0.10;0.10;;;2.70;81.70;;;;;;4980397;28;20038;-78
2023/11/26 07:58:49;;;;;;;0.20;0.20;;;2.70;81.60;;;;;;4996256;28;20032;-78
2023/11/26 08:01:14;;;;;;;0.15;0.15;;;2.70;81.40;;;;;;4997737;28;20058;-80
2023/11/26 08:03:40;;;;;;;0.20;0.20;;;2.70;81.90;;;;;;4979833;28;20161;-77
2023/11/26 08:06:11;;;;;;;0.10;0.10;;;2.70;81.70;;;;;;4980007;28;20026;-77
2023/11/26 08:08:37;;;;;;;0.10;0.10;;;2.70;81.90;;;;;;4996059;28;20382;-77
2023/11/26 08:11:04;;;;;;;0.20;0.20;;;2.80;81.50;;;;;;4997509;28;20398;-77
2023/11/26 08:13:32;;;;;;;0.20;0.20;;;2.70;81.60;;;;;;4996183;28;20049;-77
2023/11/26 08:15:58;;;;;;;0.15;0.15;;;2.80;81.60;;;;;;4996554;28;20026;-78
2023/11/26 08:18:24;;;;;;;0.13;0.13;;;2.80;81.80;;;;;;4996010;28;20026;-78
2023/11/26 08:20:52;;;;;;;0.10;0.10;;;2.80;81.50;;;;;;4971318;28;20039;-78
2023/11/26 08:23:18;;;;;;;0.20;0.20;;;2.80;81.80;;;;;;4995215;28;20508;-79
2023/11/26 08:25:44;;;;;;;0.10;0.10;;;2.90;81.80;;;;;;4995312;28;20027;-80
2023/11/26 08:28:11;;;;;;;0.20;0.20;;;3.00;81.90;;;;;;4978938;28;20088;-79
2023/11/26 08:30:47;;;;;;;0.20;0.20;;;3.20;81.60;;;;;;4977518;28;20101;-79
2023/11/26 08:33:17;;;;;;;0.20;0.20;;;3.20;81.10;;;;;;4994873;28;20548;-79
2023/11/26 08:35:43;;;;;;;0.10;0.10;;;3.30;81.20;;;;;;4981522;28;20023;-80
2023/11/26 08:38:10;;;;;;;0.13;0.13;;;3.40;81.10;;;;;;4995886;28;20561;-79
2023/11/26 08:40:38;;;;;;;0.10;0.10;;;3.40;80.60;;;;;;4995436;28;20576;-82
2023/11/26 08:43:15;;;;;;;0.20;0.20;;;3.40;80.90;;;;;;4982710;28;20023;-79
2023/11/26 08:45:41;;;;;;;0.20;0.20;;;3.50;80.70;;;;;;5001201;28;20128;-79
2023/11/26 08:48:08;;;;;;;0.10;0.10;;;3.60;80.90;;;;;;5016912;28;20049;-80
2023/11/26 08:50:34;;;;;;;0.20;0.20;;;3.50;80.30;;;;;;5000124;28;20041;-79
2023/11/26 08:53:00;;;;;;;0.20;0.20;;;3.50;80.60;;;;;;4990119;28;20023;-79
2023/11/26 08:55:25;;;;;;;0.20;0.20;;;3.50;80.60;;;;;;4999460;28;20037;-79
2023/11/26 08:57:51;;;;;;;0.10;0.10;;;3.60;80.70;;;;;;4998327;28;20026;-79
2023/11/26 09:00:17;;;;;;;0.15;0.15;;;3.70;80.70;;;;;;4999302;28;20042;-80
2023/11/26 09:02:43;;;;;;;0.10;0.10;;;3.80;80.50;;;;;;4998545;28;20022;-79
2023/11/26 09:05:09;;;;;;;0.10;0.10;;;3.80;80.60;;;;;;4996526;28;20034;-79
2023/11/26 09:07:42;;;;;;;0.10;0.10;;;3.90;80.40;;;;;;4991492;28;20085;-80
2023/11/26 09:10:09;;;;;;;0.20;0.20;;;4.00;80.20;;;;;;4974789;28;20055;-81
2023/11/26 09:12:36;;;;;;;0.20;0.20;;;4.10;79.90;;;;;;4996501;28;20027;-81
2023/11/26 09:15:02;;;;;;;0.20;0.20;;;4.20;79.90;;;;;;4996495;28;20089;-81
2023/11/26 09:17:27;;;;;;;0.10;0.10;;;4.30;79.70;;;;;;4990925;28;20367;-81
2023/11/26 09:19:53;;;;;;;0.20;0.20;;;4.20;79.50;;;;;;4991610;28;20046;-81
2023/11/26 09:22:19;;;;;;;0.10;0.10;;;4.10;79.40;;;;;;4992492;28;20113;-81
2023/11/26 09:24:45;;;;;;;0.10;0.10;;;4.10;79.80;;;;;;4993597;28;20038;-81
2023/11/26 09:27:11;;;;;;;0.10;0.10;;;4.00;79.60;;;;;;4990442;28;20040;-81
2023/11/26 09:29:38;;;;;;;0.20;0.20;;;3.90;79.70;;;;;;4998468;28;20112;-80
2023/11/26 09:32:04;;;;;;;0.20;0.20;;;4.00;79.80;;;;;;4992625;28;20078;-81
2023/11/26 09:34:30;;;;;;;0.20;0.20;;;4.00;80.20;;;;;;4997483;28;20031;-80
2023/11/26 09:36:58;;;;;;;0.20;0.20;;;4.00;80.00;;;;;;4992985;28;20022;-80
2023/11/26 09:39:23;;;;;;;0.20;0.20;;;4.00;80.30;;;;;;4996920;28;20125;-79
2023/11/26 09:41:52;;;;;;;0.10;0.10;;;4.20;80.20;;;;;;4993530;28;20076;-80
2023/11/26 09:44:18;;;;;;;0.20;0.20;;;4.40;79.80;;;;;;4996361;28;20489;-80
2023/11/26 09:46:45;;;;;;;0.20;0.20;;;4.50;79.50;;;;;;5003384;28;20034;-80
2023/11/26 09:49:11;;;;;;;0.20;0.20;;;4.50;79.40;;;;;;4988981;28;20049;-80
2023/11/26 09:51:37;;;;;;;0.17;0.17;;;4.50;79.50;;;;;;4989432;28;20033;-80
2023/11/26 09:54:06;;;;;;;0.20;0.20;;;4.60;79.60;;;;;;4977244;28;20069;-80
2023/11/26 09:56:33;;;;;;;0.20;0.20;;;4.70;79.70;;;;;;4988813;28;20026;-79
2023/11/26 09:58:58;;;;;;;0.20;0.20;;;4.80;79.50;;;;;;4987212;28;20100;-80
2023/11/26 10:01:24;;;;;;;0.10;0.10;;;4.80;79.30;;;;;;4992282;28;20070;-81
2023/11/26 10:04:05;;;;;;;0.10;0.10;;;4.90;78.80;;;;;;4975921;28;20088;-80
2023/11/26 10:06:31;;;;;;;0.10;0.10;;;4.90;79.20;;;;;;4976510;28;20133;-79
2023/11/26 10:08:58;;;;;;;0.10;0.10;;;5.00;79.40;;;;;;4986142;28;20062;-82
2023/11/26 10:11:26;;;;;;;0.10;0.10;;;5.20;79.00;;;;;;4980134;28;20030;-78
2023/11/26 10:13:53;;;;;;;0.10;0.10;;;5.10;78.90;;;;;;4975749;28;20571;-77
2023/11/26 10:16:33;;;;;;;0.10;0.10;;;5.10;79.30;;;;;;4994526;28;20034;-83
2023/11/26 10:19:03;;;;;;;0.10;0.10;;;5.20;79.20;;;;;;4996291;28;20026;-83
2023/11/26 10:21:30;;;;;;;0.20;0.20;;;5.20;79.20;;;;;;4978138;28;20042;-82
2023/11/26 10:23:58;;;;;;;0.10;0.10;;;5.30;79.10;;;;;;4979695;28;20038;-82
2023/11/26 10:26:26;;;;;;;0.20;0.20;;;5.30;79.00;;;;;;4996804;28;20033;-82
2023/11/26 10:29:02;;;;;;;0.17;0.17;;;5.40;79.30;;;;;;4995765;28;20061;-82
2023/11/26 10:31:28;;;;;;;0.10;0.10;;;5.50;79.20;;;;;;4997103;28;20149;-83
2023/11/26 10:34:14;;;;;;;0.20;0.20;;;5.50;79.30;;;;;;4978777;28;20057;-84
2023/11/26 10:36:39;;;;;;;0.10;0.10;;;5.60;79.30;;;;;;4997594;28;20029;-82
2023/11/26 10:39:09;;;;;;;0.10;0.10;;;5.70;78.90;;;;;;4980107;28;20026;-83
2023/11/26 10:41:35;;;;;;;0.10;0.10;;;5.80;79.30;;;;;;4996451;28;20037;-82
2023/11/26 10:44:02;;;;;;;0.10;0.10;;;5.90;79.30;;;;;;4980521;28;20042;-83
2023/11/26 10:46:33;;;;;;;0.10;0.10;;;6.00;78.10;;;;;;4996623;28;20030;-83
2023/11/26 10:49:32;;;;;;;0.20;0.20;;;6.00;78.70;;;;;;4997520;28;20027;-83
2023/11/26 10:52:26;;;;;;;0.13;0.13;;;6.20;78.70;;;;;;4990236;28;20041;-83
2023/11/26 10:54:57;;;;;;;0.17;0.17;;;6.20;78.30;;;;;;4994787;28;20923;-82
2023/11/26 10:57:32;;;;;;;0.10;0.10;;;6.20;77.60;;;;;;4997677;28;20429;-82
2023/11/26 11:00:02;;;;;;;0.10;0.10;;;6.30;77.70;;;;;;4996269;28;20030;-81
2023/11/26 11:02:31;;;;;;;0.20;0.20;;;6.50;77.40;;;;;;4999057;28;20038;-82
2023/11/26 11:05:00;;;;;;;0.10;0.10;;;6.60;77.10;;;;;;4996257;28;20069;-80
2023/11/26 11:07:28;;;;;;;0.10;0.10;;;6.70;76.50;;;;;;4996148;28;20030;-80
2023/11/26 11:10:17;;;;;;;0.10;0.10;;;6.70;76.30;;;;;;4997173;28;20077;-80
2023/11/26 11:12:55;;;;;;;0.10;0.10;;;6.80;76.90;;;;;;4997369;28;20061;-82
2023/11/26 11:15:23;;;;;;;0.10;0.10;;;6.80;76.40;;;;;;4997296;28;20102;-81
2023/11/26 11:17:49;;;;;;;0.10;0.10;;;6.80;76.10;;;;;;4989505;28;20110;-81
2023/11/26 11:20:14;;;;;;;0.10;0.10;;;6.70;76.30;;;;;;4977710;28;20034;-82
2023/11/26 11:22:43;;;;;;;0.10;0.10;;;6.80;76.60;;;;;;4994707;28;20034;-82
2023/11/26 11:25:10;;;;;;;0.10;0.10;;;6.80;76.30;;;;;;4997097;28;20106;-81
2023/11/26 11:27:49;;;;;;;0.10;0.10;;;6.70;76.20;;;;;;4979696;28;20018;-81
2023/11/26 11:30:52;;;;;;;0.10;0.10;;;6.70;76.30;;;;;;4995662;28;20034;-81
2023/11/26 11:33:17;;;;;;;0.10;0.10;;;6.90;76.30;;;;;;4991935;28;20030;-81
2023/11/26 11:35:47;;;;;;;0.10;0.10;;;7.00;75.40;;;;;;4975104;28;20086;-81
2023/11/26 11:38:17;;;;;;;0.10;0.10;;;7.10;75.90;;;;;;4977392;28;20110;-82
2023/11/26 11:41:09;;;;;;;0.10;0.10;;;7.10;75.70;;;;;;4970639;28;20097;-81
2023/11/26 11:43:39;;;;;;;0.10;0.10;;;7.00;75.70;;;;;;4996943;28;20038;-81
2023/11/26 11:46:27;;;;;;;0.10;0.10;;;7.10;75.70;;;;;;4996168;28;20109;-80
2023/11/26 11:48:54;;;;;;;0.10;0.10;;;7.20;74.90;;;;;;4996138;28;20030;-81
2023/11/26 11:51:34;;;;;;;0.20;0.20;;;7.30;75.00;;;;;;4995400;28;20058;-81
2023/11/26 11:54:35;;;;;;;0.10;0.10;;;7.40;74.60;;;;;;4975924;28;20050;-81
2023/11/26 11:57:01;;;;;;;0.10;0.10;;;7.50;75.30;;;;;;4972885;28;20125;-80
2023/11/26 11:59:27;;;;;;;0.15;0.15;;;7.50;75.10;;;;;;4975900;28;20118;-81
2023/11/26 12:01:55;;;;;;;0.20;0.20;;;7.50;74.30;;;;;;4982699;28;20061;-81
2023/11/26 12:04:37;;;;;;;0.10;0.10;;;7.60;74.60;;;;;;4978865;28;20418;-81
2023/11/26 12:07:03;;;;;;;0.10;0.10;;;7.70;74.20;;;;;;4996370;28;20084;-80
2023/11/26 12:09:34;;;;;;;0.10;0.10;;;7.70;72.60;;;;;;4995187;28;20040;-81
2023/11/26 12:12:00;;;;;;;0.10;0.10;;;7.80;73.40;;;;;;4978851;28;20026;-80
2023/11/26 12:14:26;;;;;;;0.10;0.10;;;7.80;73.50;;;;;;4995019;28;20022;-81
2023/11/26 12:16:52;;;;;;;0.10;0.10;;;7.90;72.90;;;;;;4978731;28;20173;-81
2023/11/26 12:19:20;;;;;;;0.10;0.10;;;8.00;72.20;;;;;;4996233;28;20030;-82
2023/11/26 12:21:47;;;;;;;0.10;0.10;;;8.10;72.00;;;;;;4996185;28;20158;-81
2023/11/26 12:24:23;;;;;;;0.10;0.10;;;8.10;72.00;;;;;;4975201;28;20037;-81
2023/11/26 12:26:49;;;;;;;0.10;0.10;;;8.20;72.00;;;;;;4959700;28;20034;-80
2023/11/26 12:29:25;;;;;;;0.10;0.10;;;8.20;71.30;;;;;;4976734;28;20084;-81
2023/11/26 12:31:58;;;;;;;0.10;0.10;;;8.20;71.90;;;;;;4976503;28;20047;-81
2023/11/26 12:34:24;;;;;;;;;;;8.30;71.90;;;;;;4995062;28;20116;-81
2023/11/26 12:36:51;;;;;;;0.10;0.10;;;8.40;71.10;;;;;;4995080;28;19944;-81
2023/11/26 12:39:21;;;;;;;0.10;0.10;;;8.40;71.30;;;;;;4978282;28;21004;-81
2023/11/26 12:41:49;;;;;;;0.10;0.10;;;8.30;71.30;;;;;;4996035;28;20030;-80
2023/11/26 12:44:17;;;;;;;0.10;0.10;;;8.30;72.00;;;;;;4978443;28;20018;-80
2023/11/26 12:46:44;;;;;;;0.10;0.10;;;8.30;71.50;;;;;;4978346;28;20034;-80
2023/11/26 12:49:16;;;;;;;0.10;0.10;;;8.30;72.00;;;;;;4995985;28;20019;-81
2023/11/26 12:51:43;;;;;;;0.10;0.10;;;8.30;71.90;;;;;;4991770;28;20027;-80
2023/11/26 12:54:09;;;;;;;0.10;0.10;;;8.30;71.90;;;;;;4995977;28;20393;-81
2023/11/26 12:56:35;;;;;;;0.10;0.10;;;8.30;71.60;;;;;;4994981;28;20034;-81
2023/11/26 12:59:02;;;;;;;0.10;0.10;;;8.30;71.80;;;;;;4995985;28;20023;-81
2023/11/26 13:01:34;;;;;;;0.10;0.10;;;8.40;71.40;;;;;;4995989;28;20026;-81
2023/11/26 13:04:00;;;;;;;0.10;0.10;;;8.40;71.50;;;;;;4995885;28;20026;-81
2023/11/26 13:06:27;;;;;;;0.10;0.10;;;8.40;72.10;;;;;;4994827;28;20041;-80
2023/11/26 13:09:08;;;;;;;0.10;0.10;;;8.30;72.20;;;;;;4978404;28;20137;-80
2023/11/26 13:11:38;;;;;;;0.20;0.20;;;8.30;71.80;;;;;;4995945;28;20552;-80
2023/11/26 13:14:11;;;;;;;0.10;0.10;;;8.30;72.40;;;;;;4994905;28;20560;-80
2023/11/26 13:16:37;;;;;;;0.10;0.10;;;8.40;72.60;;;;;;4995922;28;20019;-81
2023/11/26 13:19:04;;;;;;;0.10;0.10;;;8.30;72.70;;;;;;4995722;28;20022;-80
2023/11/26 13:21:30;;;;;;;0.13;0.13;;;8.30;73.00;;;;;;4978214;28;20053;-80
2023/11/26 13:23:56;;;;;;;0.10;0.10;;;8.20;72.70;;;;;;4978060;28;20038;-80
2023/11/26 13:26:22;;;;;;;0.10;0.10;;;8.20;72.30;;;;;;4997771;28;20033;-80
2023/11/26 13:28:48;;;;;;;0.10;0.10;;;8.20;72.50;;;;;;4998182;28;20084;-80
2023/11/26 13:31:15;;;;;;;0.10;0.10;;;8.20;72.60;;;;;;4981567;28;20050;-81
2023/11/26 13:33:40;;;;;;;0.10;0.10;;;8.10;72.70;;;;;;4998987;28;20058;-80
2023/11/26 13:36:06;;;;;;;0.13;0.13;;;8.10;72.80;;;;;;4981599;28;20018;-80
2023/11/26 13:38:32;;;;;;;0.10;0.10;;;8.00;72.90;;;;;;4977149;28;20035;-80
2023/11/26 13:40:58;;;;;;;0.10;0.10;;;8.10;73.30;;;;;;4991237;28;20026;-80
2023/11/26 13:43:24;;;;;;;0.10;0.10;;;8.10;73.50;;;;;;4970559;28;20039;-80
2023/11/26 13:45:50;;;;;;;0.10;0.10;;;8.20;73.50;;;;;;4979524;28;20105;-80
2023/11/26 13:48:16;;;;;;;0.10;0.10;;;8.20;73.60;;;;;;4973076;28;20031;-80
2023/11/26 13:50:42;;;;;;;0.10;0.10;;;8.20;73.60;;;;;;4978952;28;20027;-80
2023/11/26 13:53:09;;;;;;;0.10;0.10;;;8.30;73.30;;;;;;4978472;28;20034;-80
2023/11/26 13:55:35;;;;;;;0.10;0.10;;;8.30;73.50;;;;;;4998549;28;20041;-80
2023/11/26 13:58:02;;;;;;;0.10;0.10;;;8.30;73.70;;;;;;4997775;28;20042;-80
2023/11/26 14:00:27;;;;;;;0.10;0.10;;;8.30;73.80;;;;;;4981038;28;20037;-80
2023/11/26 14:02:54;;;;;;;0.10;0.10;;;8.30;73.60;;;;;;4998602;28;20030;-80
2023/11/26 14:05:20;;;;;;;0.10;0.10;;;8.30;73.90;;;;;;4998709;28;20046;-80
2023/11/26 14:07:47;;;;;;;0.10;0.10;;;8.20;73.80;;;;;;4997429;28;20116;-80
2023/11/26 14:10:20;;;;;;;0.10;0.10;;;8.20;73.90;;;;;;4998254;28;20478;-79
2023/11/26 14:12:48;;;;;;;0.10;0.10;;;8.20;74.30;;;;;;4998416;28;20030;-80
2023/11/26 14:15:17;;;;;;;0.20;0.20;;;8.10;74.60;;;;;;4997345;28;20022;-80
2023/11/26 14:17:47;;;;;;;0.10;0.10;;;8.10;74.90;;;;;;4998371;28;20088;-80
2023/11/26 14:20:18;;;;;;;0.10;0.10;;;8.00;75.00;;;;;;4998116;28;20030;-80
2023/11/26 14:22:45;;;;;;;0.10;0.10;;;7.90;75.40;;;;;;4997359;28;20032;-79
2023/11/26 14:25:14;;;;;;;0.10;0.10;;;7.90;75.60;;;;;;4979932;28;20023;-79
2023/11/26 14:27:40;;;;;;;0.10;0.10;;;7.90;75.50;;;;;;4998249;28;20022;-80
2023/11/26 14:30:06;;;;;;;0.10;0.10;;;7.90;75.90;;;;;;4997749;28;20026;-79
2023/11/26 14:32:32;;;;;;;0.10;0.10;;;7.90;76.30;;;;;;4980804;28;20072;-79
2023/11/26 14:34:58;;;;;;;0.10;0.10;;;7.80;76.20;;;;;;4961988;28;20031;-80
2023/11/26 14:37:23;;;;;;;0.10;0.10;;;7.80;76.40;;;;;;4960193;28;20397;-80
2023/11/26 14:39:53;;;;;;;0.10;0.10;;;7.80;76.40;;;;;;4989338;28;20031;-79
2023/11/26 14:42:22;;;;;;;0.10;0.10;;;7.80;76.50;;;;;;4998036;28;20109;-80
2023/11/26 14:44:48;;;;;;;0.10;0.10;;;7.80;76.60;;;;;;4992321;28;20039;-79
2023/11/26 14:47:14;;;;;;;0.10;0.10;;;7.80;76.70;;;;;;4978472;28;20030;-79
2023/11/26 14:49:40;;;;;;;0.10;0.10;;;7.80;76.90;;;;;;4978172;28;20646;-79
2023/11/26 14:52:08;;;;;;;0.10;0.10;;;7.80;77.00;;;;;;4978303;28;20042;-80
2023/11/26 14:54:44;;;;;;;0.17;0.17;;;7.80;77.30;;;;;;4988643;28;20026;-79
2023/11/26 14:57:10;;;;;;;0.10;0.10;;;7.80;77.30;;;;;;4997923;28;20030;-79
2023/11/26 14:59:36;;;;;;;0.10;0.10;;;7.80;77.50;;;;;;4996709;28;20089;-80
2023/11/26 15:02:05;;;;;;;0.10;0.10;;;7.80;77.40;;;;;;4995193;28;20648;-79
2023/11/26 15:04:30;;;;;;;0.10;0.10;;;7.80;77.40;;;;;;4996238;28;20026;-79
2023/11/26 15:06:56;;;;;;;0.10;0.10;;;7.70;77.60;;;;;;4997448;28;20045;-79
2023/11/26 15:09:24;;;;;;;0.10;0.10;;;7.70;77.60;;;;;;4996166;28;20041;-79
2023/11/26 15:11:50;;;;;;;0.10;0.10;;;7.70;77.60;;;;;;4997222;28;20033;-79
2023/11/26 15:14:16;;;;;;;0.10;0.10;;;7.70;77.70;;;;;;4980206;28;20014;-79
2023/11/26 15:16:41;;;;;;;0.10;0.10;;;7.70;77.60;;;;;;4996245;28;20027;-79
2023/11/26 15:19:08;;;;;;;0.20;0.20;;;7.70;77.80;;;;;;4995944;28;20035;-79
2023/11/26 15:21:34;;;;;;;0.10;0.10;;;7.60;77.80;;;;;;4997236;28;20089;-79
2023/11/26 15:24:01;;;;;;;0.10;0.10;;;7.70;77.80;;;;;;4996075;28;20106;-79
2023/11/26 15:26:26;;;;;;;0.10;0.10;;;7.70;77.70;;;;;;4997167;28;20031;-79
2023/11/26 15:28:52;;;;;;;0.10;0.10;;;7.70;77.80;;;;;;4996394;28;20548;-79
2023/11/26 15:31:18;;;;;;;0.10;0.10;;;7.70;77.70;;;;;;4997080;28;20049;-79
2023/11/26 15:33:44;;;;;;;0.10;0.10;;;7.70;77.60;;;;;;4996757;28;20027;-79
2023/11/26 15:36:19;;;;;;;0.10;0.10;;;7.70;77.70;;;;;;4979540;28;20656;-79
2023/11/26 15:38:45;;;;;;;0.10;0.10;;;7.70;77.70;;;;;;4995622;28;20030;-80
2023/11/26 15:41:21;;;;;;;0.10;0.10;;;7.70;77.60;;;;;;4996906;28;20031;-79
2023/11/26 15:43:51;;;;;;;0.10;0.10;;;7.70;77.70;;;;;;4995721;28;20038;-79
2023/11/26 15:46:26;;;;;;;0.10;0.10;;;7.80;78.00;;;;;;4978703;28;20375;-79
2023/11/26 15:48:54;;;;;;;0.10;0.10;;;7.70;77.80;;;;;;4996669;28;20030;-79
2023/11/26 15:51:21;;;;;;;0.10;0.10;;;7.70;77.80;;;;;;4978441;28;20034;-79
2023/11/26 15:53:47;;;;;;;0.10;0.10;;;7.70;77.70;;;;;;4996536;28;20133;-79
2023/11/26 15:56:17;;;;;;;0.10;0.10;;;7.70;77.80;;;;;;4995280;28;20104;-79
2023/11/26 15:58:43;;;;;;;0.10;0.10;;;7.70;77.80;;;;;;4989435;28;20069;-79
2023/11/26 16:01:09;;;;;;;0.10;0.10;;;7.70;77.80;;;;;;4977222;28;20023;-79
2023/11/26 16:03:35;;;;;;;0.10;0.10;;;7.70;77.90;;;;;;4991022;28;20049;-79
2023/11/26 16:06:00;;;;;;;0.10;0.10;;;7.70;78.10;;;;;;4976667;28;20778;-79
2023/11/26 16:08:27;;;;;;;0.10;0.10;;;7.60;78.10;;;;;;4959650;28;20081;-79
2023/11/26 16:10:53;;;;;;;0.10;0.10;;;7.60;78.40;;;;;;4972706;28;20046;-79
2023/11/26 16:13:18;;;;;;;0.10;0.10;;;7.60;78.50;;;;;;4980174;28;20382;-80
2023/11/26 16:15:44;;;;;;;0.10;0.10;;;7.50;78.60;;;;;;4996276;28;20014;-79
2023/11/26 16:18:10;;;;;;;0.10;0.10;;;7.50;78.70;;;;;;4978408;28;20213;-79
2023/11/26 16:20:37;;;;;;;0.10;0.10;;;7.50;78.60;;;;;;4978116;28;20084;-79
2023/11/26 16:23:03;;;;;;;0.10;0.10;;;7.50;78.70;;;;;;4996522;28;20030;-79
2023/11/26 16:25:29;;;;;;;0.10;0.10;;;7.50;78.70;;;;;;4996183;28;20399;-79
2023/11/26 16:27:56;;;;;;;0.10;0.10;;;7.50;78.90;;;;;;4995446;28;20033;-79
2023/11/26 16:30:22;;;;;;;0.10;0.10;;;7.50;79.00;;;;;;4996097;28;20121;-79
2023/11/26 16:32:49;;;;;;;0.10;0.10;;;7.50;79.00;;;;;;4995242;28;20030;-79
2023/11/26 16:35:17;;;;;;;0.10;0.10;;;7.50;79.10;;;;;;4977075;28;20027;-79
2023/11/26 16:37:43;;;;;;;0.10;0.10;;;7.50;79.20;;;;;;4996237;28;20849;-79
2023/11/26 16:40:10;;;;;;;0.10;0.10;;;7.50;79.20;;;;;;4996076;28;20521;-79
2023/11/26 16:42:36;;;;;;;0.10;0.10;;;7.50;79.20;;;;;;4996340;28;20074;-79
2023/11/26 16:45:02;;;;;;;0.10;0.10;;;7.50;79.20;;;;;;4994881;28;20529;-79
2023/11/26 16:47:30;;;;;;;0.10;0.10;;;7.40;79.20;;;;;;4996204;28;20073;-79
2023/11/26 16:49:57;;;;;;;0.10;0.10;;;7.40;79.20;;;;;;4977291;28;20038;-79
2023/11/26 16:52:23;;;;;;;0.10;0.10;;;7.40;79.40;;;;;;4996002;28;20037;-79
2023/11/26 16:54:49;;;;;;;0.10;0.10;;;7.40;79.30;;;;;;4994799;28;20034;-79
2023/11/26 16:57:15;;;;;;;0.10;0.10;;;7.30;79.50;;;;;;4978789;28;20034;-79
2023/11/26 16:59:40;;;;;;;0.10;0.10;;;7.30;79.60;;;;;;4992908;28;20037;-79
2023/11/26 17:02:06;;;;;;;0.10;0.10;;;7.30;79.70;;;;;;4972098;28;20022;-79
2023/11/26 17:04:32;;;;;;;0.10;0.10;;;7.30;79.60;;;;;;4990672;28;20022;-79
2023/11/26 17:06:58;;;;;;;0.10;0.10;;;7.30;79.70;;;;;;5000054;28;20037;-79
2023/11/26 17:09:23;;;;;;;0.15;0.15;;;7.30;79.70;;;;;;4998473;28;20030;-79
2023/11/26 17:11:49;;;;;;;0.10;0.10;;;7.30;79.80;;;;;;4998551;28;20098;-79
2023/11/26 17:14:15;;;;;;;0.10;0.10;;;7.30;79.80;;;;;;4999870;28;20026;-79
2023/11/26 17:16:40;;;;;;;0.10;0.10;;;7.30;80.00;;;;;;4998678;28;20022;-79
2023/11/26 17:19:06;;;;;;;0.10;0.10;;;7.30;80.00;;;;;;4999428;28;20104;-79
2023/11/26 17:21:35;;;;;;;0.10;0.10;;;7.30;79.90;;;;;;4998427;28;20030;-79
2023/11/26 17:24:00;;;;;;;0.10;0.10;;;7.20;80.10;;;;;;4999648;28;20081;-79
2023/11/26 17:26:27;;;;;;;0.10;0.10;;;7.20;80.20;;;;;;4982065;28;20022;-79
2023/11/26 17:28:53;;;;;;;0.10;0.10;;;7.20;80.20;;;;;;4981818;28;20521;-85
2023/11/26 17:31:28;;;;;;;0.10;0.10;;;7.20;80.30;;;;;;4997875;28;20178;-83
2023/11/26 17:33:55;;;;;;;0.10;0.10;;;7.20;80.30;;;;;;4981642;28;20030;-83
2023/11/26 17:36:21;;;;;;;0.10;0.10;;;7.20;80.40;;;;;;4998770;28;20477;-82
2023/11/26 17:38:47;;;;;;;0.10;0.10;;;7.20;80.40;;;;;;4997960;28;20030;-77
2023/11/26 17:41:13;;;;;;;0.10;0.10;;;7.20;80.50;;;;;;4978716;28;20081;-83
2023/11/26 17:43:39;;;;;;;0.10;0.10;;;7.20;80.60;;;;;;4996478;28;20054;-81
2023/11/26 17:46:05;;;;;;;0.10;0.10;;;7.10;80.80;;;;;;4997328;28;20034;-78
2023/11/26 17:48:30;;;;;;;0.10;0.10;;;7.10;80.90;;;;;;4978942;28;20795;-79
2023/11/26 17:50:56;;;;;;;0.10;0.10;;;7.10;80.90;;;;;;4998199;28;20037;-77
2023/11/26 17:53:22;;;;;;;0.10;0.10;;;7.10;80.80;;;;;;4996288;28;20034;-79
2023/11/26 17:55:48;;;;;;;0.10;0.10;;;7.20;80.90;;;;;;4996785;28;20015;-82
2023/11/26 17:58:14;;;;;;;0.10;0.10;;;7.20;80.80;;;;;;4997084;28;20022;-82
2023/11/26 18:00:41;;;;;;;0.10;0.10;;;7.20;80.90;;;;;;4998592;28;20033;-86
2023/11/26 18:03:08;;;;;;;0.10;0.10;;;7.20;80.80;;;;;;4998002;28;20030;-83
2023/11/26 18:05:34;;;;;;;0.10;0.10;;;7.20;80.80;;;;;;4996134;28;20021;-83
2023/11/26 18:08:01;;;;;;;0.10;0.10;;;7.20;80.90;;;;;;4998845;28;20118;-79
2023/11/26 18:10:27;;;;;;;0.13;0.13;;;7.20;81.10;;;;;;4994340;28;20065;-78
2023/11/26 18:12:52;;;;;;;0.10;0.10;;;7.20;80.90;;;;;;4996751;28;20026;-78
2023/11/26 18:15:18;;;;;;;0.13;0.13;;;7.20;81.10;;;;;;4978112;28;20031;-77
2023/11/26 18:17:44;;;;;;;0.10;0.10;;;7.20;81.10;;;;;;4972043;28;20023;-76
2023/11/26 18:20:10;;;;;;;0.10;0.10;;;7.20;81.20;;;;;;4995592;28;20030;-76
2023/11/26 18:22:37;;;;;;;0.10;0.10;;;7.20;81.30;;;;;;4996676;28;20015;-75
2023/11/26 18:25:04;;;;;;;0.10;0.10;;;7.20;81.50;;;;;;4994752;28;20054;-75
2023/11/26 18:27:31;;;;;;;0.10;0.10;;;7.20;81.60;;;;;;4996836;28;20022;-73
2023/11/26 18:29:57;;;;;;;0.20;0.20;;;7.10;81.80;;;;;;4997009;28;20030;-75